Timeline UpdatesTrip UpdatesNews PostsPvt PostsTravel TipsAdmin PostsConv PostsFollowed PostsChat RequestsBlog PostsPNR Posts

Disclaimer
Search
 
 
Tue Sep 30, 2014 11:30:51 ISTHomeTrainsΣChainsAtlasPNRForumGalleryNewsFAQTripsMembersLoginFeedback
No Recent News for this Train
Other Trains in the News **new
Latest...
.
Thu Jul 24, 2014 (11:10PM)
⇐ Return Journey: Train# 19019

19020/Dehradun - Mumbai Bandra Terminus Express

Time-Table HAS CHANGED.
Sep 03 (11:17AM)
Change Departure Station:
Change Arrival Station:
Post a Train Travel TipPost a Train Travel Tip **new
Post a Comment/Question/Picture/VideoPost a Comment/Question/Picture/Video
Pantry/Catering
✕ NO Pantry Car
✓ Catering Avbl
Loco/Rake Reversals
SRE/Saharanpur Junction (6); LRJ/Laksar Junction (4);
RSA - Rake Sharing
Rake/Coach Composition
LOCO-SLR-HCPV-GEN-GEN-AB1-S1-S2-S3-S4-S5-S6-S7-S8-S9-SLR
Loco
GZB WAP-7 NZM-BDTS. ddn to nzm tkd wdp 3a. By Er...
Read more...
Ankit Shotra Bhagat Entry# 595554
News    PNR    Forum    Time-Table    Availability    Fare Chart    Map    Arr/Dep History    Trips    Gallery    ΣChains    X/O    Timeline    
Travel Time: 2h 29m    -86 halts    Distance: 121 km    Avg Speed: 48 km/hr
Type: Mail/Express
Zone: WR/Western
Departs @ 00:38 (Avg 15m late)
Platform# ???
SMTWTFS
Vapi/VAPI 
Arrives @ 03:07 (Avg 14m late)
Platform# ???
SMTWTFS
Vasai Road/BSR 

-86 halts. 16 intermediate Stations between Vapi and Vasai Road

Show ALL intermediate Stations  Show Old Time-Table

#CodeStation NameX/OArrivesAvgDepartsAvgHaltPFDay#KmSpeedElevZoneAddress
1DDNDehradun (4)  -10:35 10:30+021-1524.938648mNRDehradun, Uttarakhand
2DWODoiwala  11:04 11:01+311:06 11:03+32m--1-1505.141484mNRDehradun, Uttarakhand
3RWLRaiwala Junction (2)X  11:38 11:33+511:40 11:35+162m21-1484.317361mNRRishikesh, Uttarakhand
4MOTCMotichur (2)  12:00 11:58+812:02 12:00+112m11-1477.818312mNRHaridwar, Uttarakhand
5HWHaridwar Junction (9)X  12:15+1112:45+1230m31-1473.248294mNRHaridwar, Uttarakhand
6JWPJwalapurX  12:53 12:50+1412:55 12:52+162m--1-1469.220292mNRHaridwar, Uttarakhand
7LRJLaksar Junction (4)X14:00+1314:25+1125m--1-1446.353238mNRLaksar, Uttarakhand
8RKRoorkee (3)X  14:43 14:45+1214:45 14:50+152 5m31-1428.546264mNRRoorkee - 247667, Uttarakhand
9SRESaharanpur Junction (6)X15:35+1416:05+430m41-1393.848276mNRSaharanpur, Uttar Pradesh
10DBDDeoband (2)  16:50 16:48+1216:52 16:50+132m21-1359.644258mNRSaharanpur, Uttar Pradesh
11MOZMuzaffarnagar (3)X  17:20 17:23+1017:22 17:25+242m21-1335.663247mNRMuzaffarNagar, Uttar Pradesh
12KATKhatauli (2)  17:42 17:46+2717:44 17:48+272m11-1313.476239mNRKhatauli, Uttar Pradesh
13MUTMeerut Cantt. (2)  18:08 18:11+3018:10 18:13+302m11-1284.312230mNRMeerut, Uttar Pradesh
14MTCMeerut City Junction (6)X18:35+1719:20+1145m41-1279.973229mNRMeerut, Uttar Pradesh
15MDNRModinagar (2)X  19:34 19:36+1719:36 19:38+172m21-1260.555221mNRGhaziabad, Uttar Pradesh
16MUDMuradnagar (2)X  19:45 19:49+1719:47 19:51+172m21-1250.459220mNRGhaziabad, Uttar Pradesh
17GZNNew Ghaziabad (2)XO  20:02 20:03+1620:04 20:05+162m21-1238.714213mNRGhaziabad, Uttar Pradesh
18GZBGhaziabad Junction (6)XO  20:30 20:31+720:32 20:33+92m41-1232.734217mNRGhaziabad, Uttar Pradesh
19SBBSahibabad Junction (5)X  20:41 20:45+1520:43 20:46+152 1m--1-1226.033209mNRGhaziabad, Uttar Pradesh
20NZMDelhi Hazrat Nizamuddin (7)O21:15+1521:55+1440m11-1210.025209mNRNew Delhi 110013, Delhi NCT
21TKDTuglakabad (4)XO  22:18+922:20+142m--1-1200.344213mNRNear Tughlakabad Metro Station, Delhi NCT
22FDBFaridabad (4)O  22:44 22:35+822:46 22:36+112 1m31-1189.235206mNRold Faridabad, Haryana
23BVHBallabgarh (5)X  22:58 22:50+1123:00 22:52+112m--1-1181.129203mNRFaridabad, Haryana
24PWLPalwal (8)X  23:36+323:38+52m--1-1159.985200mNRPalwal, Haryana
25KSVKosi Kalan (3)O  00:08+1700:10+172m22-1117.529189mNCRKosi Kalan, Uttar Pradesh
26MTJMathura Junction (10)XO  01:35+001:45 01:40+310 5m32-1076.061179mNCRMathura, Uttar Pradesh
27BTEBharatpur Junction (5)  02:10 02:13+502:15+75 2m--2-1042.584174mWCRBharatpur, Rajasthan
28BXNBayana Junction (3)X  02:45+702:47+92m--2-1000.570198mWCRBayana, Rajasthan
29HANHindaun City (2)  03:15+1303:17+152m--2-967.656230mWCRKarauli, Rajasthan
30SMBJShri Mahabirji (3)O  03:26 03:28+1503:28 03:30+152m--2-957.541240mWCRKarauli, Rajasthan
31GGCGangapur City (3)  04:10 04:20+404:20 04:25+810 5m--2-923.463270mWCRGangapur, Rajasthan
32MLZMalarnaX  04:50 04:57+1004:52 04:59+102m--2-889.686236mWCRSawai Madhopur, Rajasthan
33SWMSawai Madhopur Junction (4)X  05:20+1005:25+115m--2-859.578266mWCRSawai Madhopur, Rajasthan
34IDGIndargarh Sumerganj Mandi (2)X  05:48 05:53+1305:50 05:55+162m--2-823.266247mWCRIndargarh, Rajasthan
35LKELakheri (3)  05:58 06:05+1706:00 06:07+172m--2-812.269228mWCRBundi, Rajasthan
36KPTNKeshorai PatanXO  06:38 06:48+1906:40 06:50+202m--2-765.153243mWCRSH 33, Rajasthan
37GQLGurlaO  06:48 06:59+2406:50 07:00+262 1m--2-757.211251mWCRSH 33, Rajasthan
38KOTAKota Junction (5)X07:30+707:50+1320m22-751.833256mWCRKota, Rajasthan
39DKNTDakaniya Talav (2)  08:01 08:07+1508:03 08:08+172 1m22-742.479278mWCRKota, Rajasthan
40DARADara  08:30 08:37+1908:32 08:39+202m--2-704.363354mWCRDara, Rajasthan
41MKXMorak (2)X  08:48 08:53+1908:50 08:55+202m--2-689.642337mWCRMorak, Rajasthan
42RMARamganj Mandi Junction (3)  09:03 09:08+1709:05 09:10+212m--2-680.557358mWCRRamganj Mandi, Rajasthan
43JHWJhalawar Road (3)  09:18 09:23+2009:20 09:25+212m--2-668.155361mWCRJhalawar City, Rajasthan
44BWMBhawani Mandi (3)  09:38 09:43+1909:40 09:45+272m--2-651.776384mWCRBhawani Mandi, Madhya Pradesh
45GOHGaroth (2)X  09:58 10:03+2810:00 10:05+282m12-629.028441mWCRMadhya Pradesh 458880, Madhya Pradesh
46SGZShamgarh (3)X  10:25 10:28+1610:30+235 2m--2-618.267463mWCRMandsaur, Madhya Pradesh
47SVASuwasra (2)  10:42+2510:44+262m--2-604.766450mWCRSuwasra, Madhya Pradesh
48CMUChau Mahla (3)  10:58+2611:00+292m12-589.435426mWCRJhalawar, Rajasthan
49THURThuriaX  11:24+1711:26+182m--2-575.221430mWCRMDR 45, Madhya Pradesh
50VMAVikramgarh Alot (2)X  11:48+811:50+132m12-567.561443mWCRKota Division, Madhya Pradesh
51LNRLuni Richha  12:03+1012:05+122m--2-554.328471mWCRAlote, Madhya Pradesh
52MEPMahidpur Road  12:28+312:30+82m--2-543.729493mWCRGogapur, Madhya Pradesh
53NADNagda Junction (4)  13:05+413:15+710m--2-526.664468mWRNagda, Madhya Pradesh
54KUHKhachrod (2)  13:26 13:28+1013:28 13:30+112m--2-512.857497mWRUjjain, Madhya Pradesh
55RNHRunkheraX  13:39 13:41+1013:41 13:42+102 1m--2-502.355478mWRUjjain, Madhya Pradesh
56BODBangrodX  13:48 13:50+1013:50 13:51+102 1m--2-495.025484mWRRatlam, Madhya Pradesh
57RTMRatlam Junction (7)X  14:15+514:35+720m42-485.270495mWRRatlam, Madhya Pradesh
58RTIRaoti (2)  14:56 14:58+1314:58 14:59+132 1m--2-458.265409mWRState Highway 39A, Madhya Pradesh
59BOGBhairongarh (2)  15:08 15:10+1515:10 15:11+152 1m--2-446.445374mWRBhairongarh Railway Station, Madhya Pradesh
60BMIBamnia (2)  15:17 15:19+1615:19 15:21+162m--2-440.442392mWRBamnia, Madhya Pradesh
61AGRAmargarh (2)  15:25 15:27+1515:27 15:28+152 1m--2-436.252410mWRSH 39A, Madhya Pradesh
62PCNPanch Pipila (2)  15:37 15:39+1515:39 15:40+152 1m--2-426.876369mWRSH 39A, Madhya Pradesh
63THDRThandla Road (2)  15:49 15:51+1815:51 15:53+182m--2-412.860317mWRJhabua, Madhya Pradesh
64MGNMeghnagar (3)  15:59 16:01+1916:01 16:03+192m--2-404.973317mWRJhabua, Madhya Pradesh
65ANASAnas (2)  16:13 16:15+1916:15 16:16+182 1m--2-390.368288mWRMadhya Pradesh 389154 ?, Madhya Pradesh
66BIOBordi (2)  16:21 16:23+2016:23 16:24+192 1m--2-382.358289mWRNational Highway 59, Gujarat
67DHDDahod (3)X  16:35+2316:40 16:37+255 2m--2-371.764313mWRDahod, Gujarat
68LMKLimkheda  17:06 17:08+3117:08 17:09+312 1m--2-338.860205mWRLimkheda, Gujarat
69PPDPiplod Junction  17:15 17:17+3117:17 17:19+302m--2-330.879209mWRPiplod, Gujarat
70SATSant Road (2)X  17:26 17:28+3117:28 17:30+302m22-319.020169mWROrwara, Gujarat
71GDAGodhra Junction (3)X  18:30+318:35+75m102-298.654122mWRGodhra, Gujarat
72KRSAKharsaliya (2)  18:45 18:47+1118:47 18:48+112 1m--2-287.876107mWRPanchmahal, Gujarat
73DRLDerolX  18:56 18:58+1218:58 19:00+122m12-275.16881mWRKalol, Gujarat
74CPNChampaner Road JunctionXO  19:09 19:11+1119:11 19:13+112m--2-262.67578mWRPanchmahal, Gujarat
75SMLASamlaya Junction (3)X  19:20 19:22+1119:22 19:24+112m--2-251.45267mWRVadodara, Gujarat
76BRCVadodara Junction (7)  19:55+2220:05+2110m32-224.78136mWRVadodara 390005, Gujarat
77MYGMiyagam Karjan (2)  20:25 20:27+2820:27 20:28+282 1m--2-194.97029mWRKarjan, Gujarat
78BHBharuch Junction (5)X  21:01 21:03+1821:03 21:05+182m42-154.26219mWRBharuch, Gujarat
79AKVAnkleshwar Junction (4)X  21:12 21:14+1821:14 21:16+182m22-144.99319mWRAnkleshwar, Gujarat
80KSBKosamba Junction (3)X21:29 21:28+2721:31 21:30+272m--2-126.33130mWRKosamba, Gujarat
81STSurat (4)X  22:30+922:38+88m22-94.97419mWRSurat 395001, Gujarat
82NVSNavsari (3)  23:03 23:02+1523:05+152 3m--2-65.37914mWRNavsari, Gujarat
83BIMBilimora Junction (4)X  23:21+2123:23+212m--2-44.23611mWRBilimora, Gujarat
84BLValsad (3)  23:53+1723:55+232m32-26.23815mWRValsad, Gujarat
85VAPIVapi (3)X  00:36+1400:38+152m--30.06827mWRVapi, Gujarat
86PLGPalghar (3)X  02:04 01:50+1902:06 02:02+192 12m--381.53519mWRPalghar, Maharashtra
87VRVirar (8)  02:56+602:58+72m--3112.7536mWRDist. Palghar, Maharashtra
88BVIMumbai Borivali (8)  03:30 03:27+503:32+62 5m53138.52319mWRMumbai - 400092, Maharashtra
89BDTSMumbai Bandra Terminus (5)  04:20+0-13157.2-4mWRMumbai 400050, Maharashtra
Scroll to Top
Scroll to Bottom